Time;durP1;ratioP1;P1;durP2;ratioP2;P2;SDS_P1;SDS_P2;PMS_P1;PMS_P2;Temp;Humidity;BMP_temperature;BMP_pressure;BME280_temperature;BME280_humidity;BME280_pressure;Samples;Min_cycle;Max_cycle;Signal;HPM_P1;HPM_P2
2023/03/13 00:00:52;;;;;;;35.63;11.50;;;;;;;;;;5063470;28;20462;-81
2023/03/13 00:03:19;;;;;;;35.50;12.75;;;;;;;;;;5062470;28;20425;-82
2023/03/13 00:05:45;;;;;;;48.08;14.60;;;;;;;;;;5059539;28;20433;-79
2023/03/13 00:08:12;;;;;;;38.65;13.63;;;;;;;;;;5064386;28;20426;-79
2023/03/13 00:10:38;;;;;;;43.85;13.98;;;;;;;;;;5063849;28;20417;-80
2023/03/13 00:13:05;;;;;;;49.05;14.38;;;;;;;;;;5064795;28;20436;-80
2023/03/13 00:15:33;;;;;;;40.17;13.88;;;;;;;;;;5066380;28;20424;-80
2023/03/13 00:17:59;;;;;;;45.22;14.30;;;;;;;;;;5062712;28;20415;-80
2023/03/13 00:20:26;;;;;;;47.20;14.00;;;;;;;;;;5066307;28;20446;-80
2023/03/13 00:22:52;;;;;;;38.28;13.43;;;;;;;;;;5052132;28;20431;-80
2023/03/13 00:25:18;;;;;;;51.67;14.20;;;;;;;;;;5045139;28;20436;-80
2023/03/13 00:27:45;;;;;;;43.10;13.50;;;;;;;;;;5043223;28;20476;-80
2023/03/13 00:30:12;;;;;;;40.25;13.23;;;;;;;;;;5046447;28;20428;-80
2023/03/13 00:32:41;;;;;;;39.38;13.80;;;;;;;;;;5051878;28;20924;-80
2023/03/13 00:35:08;;;;;;;36.38;12.65;;;;;;;;;;5062915;28;20431;-80
2023/03/13 00:37:34;;;;;;;36.85;11.80;;;;;;;;;;5065322;28;20413;-80
2023/03/13 00:40:01;;;;;;;38.95;13.30;;;;;;;;;;5063707;28;20434;-80
2023/03/13 00:42:27;;;;;;;40.38;11.30;;;;;;;;;;5061585;28;20420;-80
2023/03/13 00:44:53;;;;;;;44.38;13.05;;;;;;;;;;5064451;28;20433;-80
2023/03/13 00:47:20;;;;;;;47.37;14.93;;;;;;;;;;5064491;28;20442;-80
2023/03/13 00:49:48;;;;;;;39.05;11.60;;;;;;;;;;5063249;28;20438;-80
2023/03/13 00:52:14;;;;;;;39.70;11.77;;;;;;;;;;5063454;28;20416;-80
2023/03/13 00:54:40;;;;;;;49.13;13.18;;;;;;;;;;5062755;28;20454;-80
2023/03/13 00:57:07;;;;;;;39.83;12.55;;;;;;;;;;5046796;28;20430;-80
2023/03/13 00:59:33;;;;;;;40.60;12.23;;;;;;;;;;5065362;28;20427;-80
2023/03/13 01:01:59;;;;;;;48.88;13.60;;;;;;;;;;5063485;28;20451;-80
2023/03/13 01:04:26;;;;;;;44.72;12.52;;;;;;;;;;5060762;28;20427;-81
2023/03/13 01:06:53;;;;;;;40.13;12.33;;;;;;;;;;5065105;28;20432;-80
2023/03/13 01:09:20;;;;;;;41.53;11.40;;;;;;;;;;5060247;28;20427;-79
2023/03/13 01:11:46;;;;;;;34.22;11.05;;;;;;;;;;5064287;28;20417;-79
2023/03/13 01:14:13;;;;;;;33.85;11.52;;;;;;;;;;5065983;28;20446;-82
2023/03/13 01:16:40;;;;;;;31.17;11.18;;;;;;;;;;5063450;28;20428;-82
2023/03/13 01:19:08;;;;;;;37.22;12.18;;;;;;;;;;5062854;28;20421;-80
2023/03/13 01:21:34;;;;;;;30.30;9.90;;;;;;;;;;5065901;28;20454;-79
2023/03/13 01:24:02;;;;;;;46.30;11.45;;;;;;;;;;5062582;28;20431;-82
2023/03/13 01:26:29;;;;;;;34.13;10.43;;;;;;;;;;5065193;28;20435;-80
2023/03/13 01:28:55;;;;;;;39.10;11.37;;;;;;;;;;5060172;28;20418;-80
2023/03/13 01:31:23;;;;;;;35.65;11.40;;;;;;;;;;5063228;28;20926;-80
2023/03/13 01:33:51;;;;;;;35.38;10.90;;;;;;;;;;5065345;28;20433;-79
2023/03/13 01:36:18;;;;;;;39.45;11.50;;;;;;;;;;5062815;28;20431;-82
2023/03/13 01:38:47;;;;;;;36.97;10.90;;;;;;;;;;5059372;28;20444;-80
2023/03/13 01:41:15;;;;;;;34.88;10.60;;;;;;;;;;5060959;28;20431;-79
2023/03/13 01:43:42;;;;;;;39.60;10.20;;;;;;;;;;5063562;28;20789;-82
2023/03/13 01:46:13;;;;;;;31.90;10.35;;;;;;;;;;5064550;28;20805;-81
2023/03/13 01:48:42;;;;;;;36.97;10.48;;;;;;;;;;5064940;28;20920;-82
2023/03/13 01:51:10;;;;;;;38.63;9.07;;;;;;;;;;5062993;28;20738;-82
2023/03/13 01:53:37;;;;;;;29.48;9.00;;;;;;;;;;5063109;28;20936;-80
2023/03/13 01:56:05;;;;;;;38.88;10.68;;;;;;;;;;5066237;28;20423;-80
2023/03/13 01:58:33;;;;;;;40.25;9.93;;;;;;;;;;5064571;28;20416;-80
2023/03/13 02:01:00;;;;;;;38.45;9.27;;;;;;;;;;5064884;28;20421;-80
2023/03/13 02:03:27;;;;;;;42.35;10.20;;;;;;;;;;5062435;28;20473;-80
2023/03/13 02:05:54;;;;;;;31.75;9.10;;;;;;;;;;5061238;28;20435;-80
2023/03/13 02:08:22;;;;;;;42.17;9.80;;;;;;;;;;5061519;28;20424;-80
2023/03/13 02:10:50;;;;;;;35.63;9.80;;;;;;;;;;5059308;28;20809;-80
2023/03/13 02:13:17;;;;;;;34.87;8.80;;;;;;;;;;5063903;28;21127;-80
2023/03/13 02:15:46;;;;;;;37.22;10.13;;;;;;;;;;5061047;28;20439;-80
2023/03/13 02:18:12;;;;;;;32.28;9.32;;;;;;;;;;5064164;28;20419;-82
2023/03/13 02:20:40;;;;;;;35.67;9.65;;;;;;;;;;5060141;28;20436;-79
2023/03/13 02:23:10;;;;;;;30.70;8.73;;;;;;;;;;5061299;28;20446;-82
2023/03/13 02:25:41;;;;;;;33.73;9.30;;;;;;;;;;5062144;28;20419;-81
2023/03/13 02:28:10;;;;;;;28.77;8.93;;;;;;;;;;5062275;28;20427;-82
2023/03/13 02:30:38;;;;;;;32.03;9.20;;;;;;;;;;5060974;28;20435;-81
2023/03/13 02:33:04;;;;;;;29.23;8.27;;;;;;;;;;5059907;28;20436;-81
2023/03/13 02:35:31;;;;;;;34.17;10.23;;;;;;;;;;5055630;28;20902;-82
2023/03/13 02:38:00;;;;;;;33.28;8.93;;;;;;;;;;5062089;28;20415;-83
2023/03/13 02:40:29;;;;;;;32.63;8.70;;;;;;;;;;5061417;28;20432;-82
2023/03/13 02:42:58;;;;;;;40.00;9.55;;;;;;;;;;5061030;28;20430;-82
2023/03/13 02:45:25;;;;;;;36.40;10.60;;;;;;;;;;5061825;28;20440;-82
2023/03/13 02:47:52;;;;;;;28.50;9.70;;;;;;;;;;5060319;28;20491;-81
2023/03/13 02:50:19;;;;;;;32.08;9.05;;;;;;;;;;5059277;28;20431;-81
2023/03/13 02:52:46;;;;;;;31.15;9.43;;;;;;;;;;5059345;28;20915;-82
2023/03/13 02:55:16;;;;;;;27.80;9.38;;;;;;;;;;5058354;28;20427;-80
2023/03/13 02:57:43;;;;;;;35.70;8.95;;;;;;;;;;5061583;28;20748;-82
2023/03/13 03:00:12;;;;;;;35.10;10.48;;;;;;;;;;5060490;28;20432;-83
2023/03/13 03:02:38;;;;;;;30.30;9.60;;;;;;;;;;5061178;28;20469;-81
2023/03/13 03:05:05;;;;;;;31.63;10.93;;;;;;;;;;5061359;28;20434;-81
2023/03/13 03:07:31;;;;;;;37.17;12.00;;;;;;;;;;5059167;28;20413;-81
2023/03/13 03:09:57;;;;;;;39.33;10.35;;;;;;;;;;5061955;28;20435;-81
2023/03/13 03:12:24;;;;;;;38.42;10.65;;;;;;;;;;5059941;28;20783;-81
2023/03/13 03:14:50;;;;;;;35.35;9.93;;;;;;;;;;5062543;28;20439;-82
2023/03/13 03:17:18;;;;;;;35.72;10.07;;;;;;;;;;5058861;28;20760;-80
2023/03/13 03:19:44;;;;;;;35.13;8.98;;;;;;;;;;5058512;28;20432;-82
2023/03/13 03:22:11;;;;;;;33.45;10.07;;;;;;;;;;5060760;28;20415;-81
2023/03/13 03:24:37;;;;;;;36.17;10.38;;;;;;;;;;5060092;28;20433;-79
2023/03/13 03:27:05;;;;;;;39.95;10.00;;;;;;;;;;5054153;28;20424;-80
2023/03/13 03:29:32;;;;;;;39.85;10.63;;;;;;;;;;5047136;28;20425;-79
2023/03/13 03:31:58;;;;;;;34.83;10.30;;;;;;;;;;5045315;28;20420;-80
2023/03/13 03:34:26;;;;;;;46.33;9.93;;;;;;;;;;5041800;28;20441;-80
2023/03/13 03:36:52;;;;;;;43.60;9.95;;;;;;;;;;5045863;28;20404;-80
2023/03/13 03:39:19;;;;;;;35.47;9.55;;;;;;;;;;5063260;28;20415;-82
2023/03/13 03:41:45;;;;;;;34.83;9.93;;;;;;;;;;5064513;28;20427;-81
2023/03/13 03:44:11;;;;;;;34.65;9.50;;;;;;;;;;5064292;28;20432;-81
2023/03/13 03:46:38;;;;;;;47.42;11.65;;;;;;;;;;5061023;28;20813;-82
2023/03/13 03:49:04;;;;;;;43.67;10.57;;;;;;;;;;5064941;28;20419;-81
2023/03/13 03:51:32;;;;;;;34.65;11.18;;;;;;;;;;5060433;28;20431;-81
2023/03/13 03:53:58;;;;;;;39.53;10.07;;;;;;;;;;5064277;28;20451;-81
2023/03/13 03:56:25;;;;;;;36.92;10.63;;;;;;;;;;5063365;28;20433;-81
2023/03/13 03:58:51;;;;;;;44.35;11.43;;;;;;;;;;5063973;28;20411;-79
2023/03/13 04:01:17;;;;;;;36.13;11.00;;;;;;;;;;5063616;28;20439;-81
2023/03/13 04:03:44;;;;;;;30.83;10.98;;;;;;;;;;5062498;28;20959;-81
2023/03/13 04:06:10;;;;;;;32.97;10.48;;;;;;;;;;5064810;28;20788;-81
2023/03/13 04:08:38;;;;;;;37.25;10.80;;;;;;;;;;5061843;28;20420;-79
2023/03/13 04:11:04;;;;;;;40.95;12.93;;;;;;;;;;5059982;28;20786;-79
2023/03/13 04:13:31;;;;;;;39.45;12.18;;;;;;;;;;5063418;28;20427;-81
2023/03/13 04:15:57;;;;;;;36.92;11.98;;;;;;;;;;5061433;28;20431;-78
2023/03/13 04:18:24;;;;;;;39.28;11.50;;;;;;;;;;5059973;28;20425;-80
2023/03/13 04:20:50;;;;;;;36.70;11.38;;;;;;;;;;5065559;28;20510;-79
2023/03/13 04:23:16;;;;;;;43.70;12.65;;;;;;;;;;5062047;28;20435;-80
2023/03/13 04:25:44;;;;;;;35.55;11.85;;;;;;;;;;5065773;28;20429;-79
2023/03/13 04:28:10;;;;;;;33.92;11.77;;;;;;;;;;5064729;28;20448;-80
2023/03/13 04:30:37;;;;;;;38.40;13.32;;;;;;;;;;5063774;28;20429;-82
2023/03/13 04:33:03;;;;;;;38.67;13.18;;;;;;;;;;5063710;28;20425;-80
2023/03/13 04:35:30;;;;;;;32.10;12.57;;;;;;;;;;5061591;28;20428;-80
2023/03/13 04:37:59;;;;;;;35.25;13.20;;;;;;;;;;5064512;28;20447;-80
2023/03/13 04:40:26;;;;;;;33.63;12.63;;;;;;;;;;5060441;28;20430;-80
2023/03/13 04:42:54;;;;;;;29.90;12.75;;;;;;;;;;5064208;28;20419;-80
2023/03/13 04:45:20;;;;;;;28.25;12.68;;;;;;;;;;5063156;28;20444;-81
2023/03/13 04:47:47;;;;;;;32.05;12.70;;;;;;;;;;5061272;28;20423;-81
2023/03/13 04:50:13;;;;;;;36.27;12.27;;;;;;;;;;5063939;28;20421;-79
2023/03/13 04:52:39;;;;;;;30.35;12.25;;;;;;;;;;5065505;28;20430;-79
2023/03/13 04:55:06;;;;;;;32.60;12.57;;;;;;;;;;5061391;28;20427;-81
2023/03/13 04:57:32;;;;;;;26.73;12.68;;;;;;;;;;5063518;28;20423;-81
2023/03/13 05:00:00;;;;;;;26.88;12.75;;;;;;;;;;5062354;28;20423;-81
2023/03/13 05:02:27;;;;;;;28.92;10.80;;;;;;;;;;5065223;28;20412;-82
2023/03/13 05:04:53;;;;;;;29.63;12.55;;;;;;;;;;5065430;28;20460;-81
2023/03/13 05:07:20;;;;;;;27.55;10.98;;;;;;;;;;5061240;28;20806;-79
2023/03/13 05:09:46;;;;;;;19.98;10.93;;;;;;;;;;5061465;28;20424;-80
2023/03/13 05:12:15;;;;;;;22.27;10.95;;;;;;;;;;5060630;28;20423;-79
2023/03/13 05:14:41;;;;;;;21.52;10.50;;;;;;;;;;5062687;28;20428;-79
2023/03/13 05:17:11;;;;;;;21.23;10.05;;;;;;;;;;5061049;28;20412;-79
2023/03/13 05:19:37;;;;;;;21.40;10.85;;;;;;;;;;5062561;28;20459;-81
2023/03/13 05:22:04;;;;;;;20.52;10.50;;;;;;;;;;5056674;28;20462;-82
2023/03/13 05:24:30;;;;;;;20.75;11.15;;;;;;;;;;5061468;28;20435;-81
2023/03/13 05:26:57;;;;;;;19.23;11.40;;;;;;;;;;5063624;28;20409;-81
2023/03/13 05:29:23;;;;;;;24.73;10.68;;;;;;;;;;5062984;28;20423;-81
2023/03/13 05:31:53;;;;;;;18.50;10.30;;;;;;;;;;5061495;28;21342;-82
2023/03/13 05:34:20;;;;;;;20.10;10.93;;;;;;;;;;5059336;28;20432;-81
2023/03/13 05:36:48;;;;;;;18.15;10.95;;;;;;;;;;5061938;28;20437;-79
2023/03/13 05:39:14;;;;;;;19.83;10.27;;;;;;;;;;5063092;28;20425;-79
2023/03/13 05:41:40;;;;;;;15.55;9.50;;;;;;;;;;5061118;28;20437;-83
2023/03/13 05:44:07;;;;;;;14.20;9.80;;;;;;;;;;5060413;28;20914;-81
2023/03/13 05:46:33;;;;;;;14.65;9.18;;;;;;;;;;5060063;28;20421;-81
2023/03/13 05:49:00;;;;;;;17.90;10.23;;;;;;;;;;5062838;28;20431;-82
2023/03/13 05:51:27;;;;;;;16.98;9.70;;;;;;;;;;5063728;28;20420;-82
2023/03/13 05:53:54;;;;;;;16.77;9.45;;;;;;;;;;5061342;28;20427;-81
2023/03/13 05:56:20;;;;;;;13.90;10.10;;;;;;;;;;5064495;28;20790;-83
2023/03/13 05:58:46;;;;;;;16.17;9.52;;;;;;;;;;5058667;28;20424;-83
2023/03/13 06:01:13;;;;;;;13.20;8.60;;;;;;;;;;5061277;28;20416;-83
2023/03/13 06:03:40;;;;;;;17.40;10.00;;;;;;;;;;5057871;28;20425;-82
2023/03/13 06:06:06;;;;;;;11.57;8.60;;;;;;;;;;5062368;28;20431;-81
2023/03/13 06:08:34;;;;;;;15.68;9.85;;;;;;;;;;5062281;28;21062;-83
2023/03/13 06:11:01;;;;;;;18.52;10.30;;;;;;;;;;5059217;28;20429;-81
2023/03/13 06:13:28;;;;;;;16.42;9.48;;;;;;;;;;5060538;28;20426;-82
2023/03/13 06:15:54;;;;;;;15.73;10.30;;;;;;;;;;5063096;28;20537;-81
2023/03/13 06:18:21;;;;;;;17.08;11.00;;;;;;;;;;5062804;28;20423;-84
2023/03/13 06:20:48;;;;;;;17.20;11.63;;;;;;;;;;5063436;28;20424;-81
2023/03/13 06:23:14;;;;;;;17.67;11.23;;;;;;;;;;5061137;28;20416;-82
2023/03/13 06:25:42;;;;;;;14.85;10.90;;;;;;;;;;5059901;28;20444;-83
2023/03/13 06:28:08;;;;;;;15.65;11.23;;;;;;;;;;5062477;28;20410;-83
2023/03/13 06:30:35;;;;;;;14.00;10.52;;;;;;;;;;5061555;28;20423;-82
2023/03/13 06:33:01;;;;;;;16.60;10.30;;;;;;;;;;5061696;28;20412;-80
2023/03/13 06:35:27;;;;;;;16.52;11.52;;;;;;;;;;5060146;28;20782;-82
2023/03/13 06:37:54;;;;;;;16.80;11.60;;;;;;;;;;5060781;28;20417;-83
2023/03/13 06:40:20;;;;;;;16.40;11.13;;;;;;;;;;5059859;28;20807;-81
2023/03/13 06:42:48;;;;;;;20.33;12.63;;;;;;;;;;5060566;28;20500;-82
2023/03/13 06:45:14;;;;;;;18.23;11.80;;;;;;;;;;5063466;28;20430;-83
2023/03/13 06:47:41;;;;;;;19.92;11.85;;;;;;;;;;5057989;28;20926;-80
2023/03/13 06:50:08;;;;;;;16.92;11.98;;;;;;;;;;5059578;28;20900;-83
2023/03/13 06:52:36;;;;;;;17.97;12.90;;;;;;;;;;5062999;28;20814;-80
2023/03/13 06:55:03;;;;;;;17.67;11.90;;;;;;;;;;5060124;28;20994;-82
2023/03/13 06:57:29;;;;;;;17.02;12.57;;;;;;;;;;5060158;28;20443;-80
2023/03/13 06:59:58;;;;;;;18.33;12.80;;;;;;;;;;5061413;28;20410;-81
2023/03/13 07:02:24;;;;;;;16.38;12.00;;;;;;;;;;5064871;28;20434;-83
2023/03/13 07:04:51;;;;;;;15.05;11.73;;;;;;;;;;5066162;28;20772;-81
2023/03/13 07:07:17;;;;;;;16.63;12.02;;;;;;;;;;5061962;28;20413;-80
2023/03/13 07:09:43;;;;;;;15.45;12.50;;;;;;;;;;5067037;28;20784;-80
2023/03/13 07:12:10;;;;;;;17.27;10.93;;;;;;;;;;5065080;28;20413;-83
2023/03/13 07:14:36;;;;;;;12.80;9.90;;;;;;;;;;5067111;28;20435;-83
2023/03/13 07:17:04;;;;;;;12.68;9.32;;;;;;;;;;5063127;28;20425;-82
2023/03/13 07:19:30;;;;;;;10.10;8.68;;;;;;;;;;5068373;28;20435;-80
2023/03/13 07:21:56;;;;;;;12.45;8.50;;;;;;;;;;5067687;28;20427;-83
2023/03/13 07:24:23;;;;;;;9.20;7.70;;;;;;;;;;5069606;28;20415;-83
2023/03/13 07:26:49;;;;;;;8.17;6.80;;;;;;;;;;5061017;28;21120;-82
2023/03/13 07:29:16;;;;;;;7.80;7.00;;;;;;;;;;5065941;28;20415;-81
2023/03/13 07:31:42;;;;;;;8.93;6.55;;;;;;;;;;5068377;28;20507;-81
2023/03/13 07:34:10;;;;;;;8.00;6.22;;;;;;;;;;5065133;28;20423;-81
2023/03/13 07:36:36;;;;;;;7.75;6.40;;;;;;;;;;5063562;28;20421;-80
2023/03/13 07:39:03;;;;;;;10.52;6.50;;;;;;;;;;5063613;28;20777;-81
2023/03/13 07:41:29;;;;;;;7.30;5.70;;;;;;;;;;5067911;28;20506;-81
2023/03/13 07:43:56;;;;;;;7.68;5.95;;;;;;;;;;5065049;28;20416;-83
2023/03/13 07:46:22;;;;;;;9.97;6.60;;;;;;;;;;5065191;28;20911;-82
2023/03/13 07:48:48;;;;;;;9.85;7.00;;;;;;;;;;5061658;28;20426;-82
2023/03/13 07:51:19;;;;;;;10.48;7.38;;;;;;;;;;5062123;28;20425;-81
2023/03/13 07:53:46;;;;;;;8.30;6.45;;;;;;;;;;5062601;28;20419;-81
2023/03/13 07:56:13;;;;;;;9.95;7.65;;;;;;;;;;5064131;28;20449;-82
2023/03/13 07:58:41;;;;;;;12.68;8.30;;;;;;;;;;5064940;28;20416;-81
2023/03/13 08:01:11;;;;;;;10.30;7.28;;;;;;;;;;5068391;28;20425;-81
2023/03/13 08:03:38;;;;;;;10.32;7.03;;;;;;;;;;5064182;28;20912;-81
2023/03/13 08:06:05;;;;;;;11.57;7.70;;;;;;;;;;5062102;28;20420;-80
2023/03/13 08:08:33;;;;;;;11.32;8.18;;;;;;;;;;5062684;28;20422;-81
2023/03/13 08:11:00;;;;;;;11.40;8.27;;;;;;;;;;5065195;28;20436;-81
2023/03/13 08:13:26;;;;;;;10.83;8.67;;;;;;;;;;5061761;28;20941;-80
2023/03/13 08:15:52;;;;;;;15.50;8.90;;;;;;;;;;5067440;28;20431;-80
2023/03/13 08:18:19;;;;;;;15.63;9.18;;;;;;;;;;5067687;28;20438;-81
2023/03/13 08:20:45;;;;;;;14.82;9.23;;;;;;;;;;5065024;28;20421;-81
2023/03/13 08:23:11;;;;;;;14.93;9.80;;;;;;;;;;5068528;28;20420;-81
2023/03/13 08:25:39;;;;;;;13.20;9.00;;;;;;;;;;5061096;28;20547;-81
2023/03/13 08:28:05;;;;;;;17.48;9.52;;;;;;;;;;5065307;28;20921;-80
2023/03/13 08:30:32;;;;;;;15.55;9.70;;;;;;;;;;5060649;28;20431;-83
2023/03/13 08:32:58;;;;;;;14.20;9.43;;;;;;;;;;5063540;28;20413;-83
2023/03/13 08:35:24;;;;;;;14.88;9.27;;;;;;;;;;5063536;28;20409;-81
2023/03/13 08:37:52;;;;;;;14.52;9.15;;;;;;;;;;5064322;28;20425;-83
2023/03/13 08:40:18;;;;;;;16.23;9.35;;;;;;;;;;5063879;28;20483;-80
2023/03/13 08:42:46;;;;;;;13.23;9.63;;;;;;;;;;5062375;28;20424;-81
2023/03/13 08:45:12;;;;;;;12.68;9.32;;;;;;;;;;5063624;28;20439;-80
2023/03/13 08:47:39;;;;;;;19.45;9.27;;;;;;;;;;5063922;28;20424;-82
2023/03/13 08:50:07;;;;;;;18.98;9.98;;;;;;;;;;5066237;28;20455;-80
2023/03/13 08:52:33;;;;;;;15.57;9.60;;;;;;;;;;5065462;28;20423;-81
2023/03/13 08:55:00;;;;;;;15.20;9.47;;;;;;;;;;5066301;28;20651;-81
2023/03/13 08:57:26;;;;;;;12.52;8.90;;;;;;;;;;5064694;28;20419;-80
2023/03/13 08:59:54;;;;;;;15.60;9.30;;;;;;;;;;5064887;28;20425;-81
2023/03/13 09:02:20;;;;;;;13.13;8.95;;;;;;;;;;5063408;28;20428;-80
2023/03/13 09:04:47;;;;;;;12.95;8.50;;;;;;;;;;5065578;28;20428;-81
2023/03/13 09:07:14;;;;;;;12.60;9.00;;;;;;;;;;5061684;28;20408;-81
2023/03/13 09:09:40;;;;;;;13.70;9.00;;;;;;;;;;5064425;28;20427;-81
2023/03/13 09:12:07;;;;;;;11.00;8.73;;;;;;;;;;5064126;28;20418;-81
2023/03/13 09:14:33;;;;;;;14.52;8.05;;;;;;;;;;5065083;28;20409;-81
2023/03/13 09:17:02;;;;;;;10.80;8.00;;;;;;;;;;5065416;28;20781;-81
2023/03/13 09:19:28;;;;;;;11.93;8.30;;;;;;;;;;5066674;28;20462;-81
2023/03/13 09:21:54;;;;;;;11.23;8.43;;;;;;;;;;5066373;28;20416;-81
2023/03/13 09:24:21;;;;;;;10.32;7.50;;;;;;;;;;5063406;28;20429;-81
2023/03/13 09:26:47;;;;;;;12.45;8.30;;;;;;;;;;5067688;28;20407;-81
2023/03/13 09:29:13;;;;;;;10.20;7.70;;;;;;;;;;5065609;28;20431;-81
2023/03/13 09:31:40;;;;;;;10.43;7.63;;;;;;;;;;5066693;28;20429;-81
2023/03/13 09:34:08;;;;;;;11.93;7.47;;;;;;;;;;5068773;28;20414;-81
2023/03/13 09:36:34;;;;;;;14.20;8.68;;;;;;;;;;5063261;28;20413;-80
2023/03/13 09:39:01;;;;;;;14.90;8.35;;;;;;;;;;5065970;28;20447;-81
2023/03/13 09:41:31;;;;;;;15.90;8.38;;;;;;;;;;5063961;28;20427;-81
2023/03/13 09:44:00;;;;;;;16.23;8.20;;;;;;;;;;5048345;28;20453;-81
2023/03/13 09:46:31;;;;;;;13.00;8.27;;;;;;;;;;5043832;28;20431;-81
2023/03/13 09:48:59;;;;;;;14.25;9.00;;;;;;;;;;5066960;28;20916;-82
2023/03/13 09:51:28;;;;;;;15.17;8.60;;;;;;;;;;5061339;28;20437;-81
2023/03/13 09:53:57;;;;;;;14.68;8.60;;;;;;;;;;5061392;28;20421;-81
2023/03/13 09:56:24;;;;;;;11.48;6.25;;;;;;;;;;5061424;28;20429;-82
2023/03/13 09:58:55;;;;;;;9.88;6.40;;;;;;;;;;5060851;28;20944;-81
2023/03/13 10:01:24;;;;;;;11.18;6.22;;;;;;;;;;5062491;28;20414;-81
2023/03/13 10:03:55;;;;;;;8.00;5.60;;;;;;;;;;5061186;28;20422;-81
2023/03/13 10:06:23;;;;;;;8.80;5.27;;;;;;;;;;5060462;28;20431;-81
2023/03/13 10:08:52;;;;;;;8.87;6.10;;;;;;;;;;5061428;28;20429;-80
2023/03/13 10:11:24;;;;;;;9.48;5.40;;;;;;;;;;5061643;28;20493;-80
2023/03/13 10:13:52;;;;;;;10.35;6.00;;;;;;;;;;5062235;28;20420;-80
2023/03/13 10:16:22;;;;;;;6.75;4.68;;;;;;;;;;5063559;28;20431;-79
2023/03/13 10:18:52;;;;;;;8.10;4.65;;;;;;;;;;5062442;28;20424;-82
2023/03/13 10:21:20;;;;;;;11.75;5.50;;;;;;;;;;5061395;28;20435;-81
2023/03/13 10:23:48;;;;;;;6.88;4.85;;;;;;;;;;5059473;28;20419;-80
2023/03/13 10:26:19;;;;;;;5.28;3.90;;;;;;;;;;5060240;28;20423;-81
2023/03/13 10:28:46;;;;;;;5.57;3.58;;;;;;;;;;5060329;28;20424;-80
2023/03/13 10:31:17;;;;;;;4.60;3.00;;;;;;;;;;5060736;28;20438;-80
2023/03/13 10:33:45;;;;;;;7.63;3.55;;;;;;;;;;5060886;28;20418;-82
2023/03/13 10:36:12;;;;;;;4.65;2.90;;;;;;;;;;5064597;28;20434;-80
2023/03/13 10:38:46;;;;;;;7.20;3.13;;;;;;;;;;5060485;28;20449;-81
2023/03/13 10:41:23;;;;;;;6.57;3.90;;;;;;;;;;5061692;28;20429;-80
2023/03/13 10:43:51;;;;;;;3.15;2.55;;;;;;;;;;5059899;28;20924;-80
2023/03/13 10:46:24;;;;;;;5.95;3.30;;;;;;;;;;5061977;28;20435;-80
2023/03/13 10:48:53;;;;;;;5.68;3.92;;;;;;;;;;5061313;28;20421;-81
2023/03/13 10:51:21;;;;;;;7.85;4.00;;;;;;;;;;5057828;28;20436;-81
2023/03/13 10:53:47;;;;;;;6.07;3.57;;;;;;;;;;5062151;28;20417;-81
2023/03/13 10:56:14;;;;;;;5.65;3.33;;;;;;;;;;5059713;28;20425;-81
2023/03/13 10:58:43;;;;;;;3.63;2.60;;;;;;;;;;5062260;28;20786;-80
2023/03/13 11:01:16;;;;;;;4.25;3.00;;;;;;;;;;5062607;28;21109;-82
2023/03/13 11:03:43;;;;;;;4.28;3.30;;;;;;;;;;5062436;28;20427;-82
2023/03/13 11:06:22;;;;;;;6.47;3.38;;;;;;;;;;5061147;28;20467;-82
2023/03/13 11:08:49;;;;;;;4.90;3.70;;;;;;;;;;5059733;28;20423;-83
2023/03/13 11:11:17;;;;;;;5.90;3.40;;;;;;;;;;5056994;28;20425;-82
2023/03/13 11:13:45;;;;;;;6.78;4.57;;;;;;;;;;5060256;28;20425;-82
2023/03/13 11:16:40;;;;;;;8.27;4.10;;;;;;;;;;5060514;28;20407;-82
2023/03/13 11:19:18;;;;;;;11.05;7.82;;;;;;;;;;5057362;28;20411;-82
2023/03/13 11:21:49;;;;;;;9.55;6.50;;;;;;;;;;5059860;28;20450;-82
2023/03/13 11:24:18;;;;;;;6.78;4.35;;;;;;;;;;5058296;28;20539;-82
2023/03/13 11:26:49;;;;;;;5.50;3.53;;;;;;;;;;5063660;28;20431;-81
2023/03/13 11:29:20;;;;;;;8.30;4.60;;;;;;;;;;5058510;28;20425;-81
2023/03/13 11:31:48;;;;;;;6.20;3.73;;;;;;;;;;5061874;28;20460;-82
2023/03/13 11:34:17;;;;;;;6.22;3.90;;;;;;;;;;5065658;28;20447;-81
2023/03/13 11:36:47;;;;;;;5.05;3.67;;;;;;;;;;5063297;28;20438;-82
2023/03/13 11:39:31;;;;;;;4.23;3.40;;;;;;;;;;5063670;28;20419;-82
2023/03/13 11:41:59;;;;;;;12.60;8.35;;;;;;;;;;5057732;28;20417;-82
2023/03/13 11:44:31;;;;;;;11.68;7.13;;;;;;;;;;5065863;28;20820;-81
2023/03/13 11:47:18;;;;;;;10.10;6.82;;;;;;;;;;5062665;28;20419;-80
2023/03/13 11:49:54;;;;;;;8.63;5.97;;;;;;;;;;5039621;28;20410;-79
2023/03/13 11:52:24;;;;;;;11.02;5.38;;;;;;;;;;5063032;28;20436;-80
2023/03/13 11:55:14;;;;;;;17.10;8.13;;;;;;;;;;5065140;28;20417;-81
2023/03/13 11:57:44;;;;;;;6.28;4.70;;;;;;;;;;5065793;28;20781;-82
2023/03/13 12:00:21;;;;;;;6.97;4.43;;;;;;;;;;5063797;28;20413;-81
2023/03/13 12:02:50;;;;;;;10.63;4.40;;;;;;;;;;5066769;28;20474;-81
2023/03/13 12:05:18;;;;;;;8.60;6.22;;;;;;;;;;5065287;28;20543;-81
2023/03/13 12:07:46;;;;;;;11.45;6.88;;;;;;;;;;5063185;28;20936;-80
2023/03/13 12:10:15;;;;;;;5.10;3.95;;;;;;;;;;5067845;28;20777;-82
2023/03/13 12:12:46;;;;;;;6.03;4.63;;;;;;;;;;5066400;28;20416;-82
2023/03/13 12:15:18;;;;;;;6.15;2.80;;;;;;;;;;5063631;28;20516;-82
2023/03/13 12:17:49;;;;;;;9.00;4.00;;;;;;;;;;5061977;28;20427;-85
2023/03/13 12:20:19;;;;;;;5.97;2.95;;;;;;;;;;5063803;28;20422;-82
2023/03/13 12:22:47;;;;;;;6.20;2.70;;;;;;;;;;5065759;28;20432;-83
2023/03/13 12:25:16;;;;;;;5.07;2.10;;;;;;;;;;5064986;28;20926;-82
2023/03/13 12:27:45;;;;;;;5.10;2.50;;;;;;;;;;5069172;28;20419;-81
2023/03/13 12:30:19;;;;;;;4.53;2.17;;;;;;;;;;5068901;28;20408;-80
2023/03/13 12:32:50;;;;;;;4.60;2.50;;;;;;;;;;5066279;28;20417;-81
2023/03/13 12:35:20;;;;;;;5.27;2.10;;;;;;;;;;5066677;28;20411;-83
2023/03/13 12:37:50;;;;;;;5.90;2.40;;;;;;;;;;5070422;28;20430;-81
2023/03/13 12:40:21;;;;;;;5.20;2.10;;;;;;;;;;5066937;28;20423;-81
2023/03/13 12:42:51;;;;;;;3.95;1.90;;;;;;;;;;5065446;28;20412;-81
2023/03/13 12:45:18;;;;;;;5.00;2.20;;;;;;;;;;5070171;28;20812;-80
2023/03/13 12:47:59;;;;;;;4.55;2.20;;;;;;;;;;5066170;28;20495;-81
2023/03/13 12:50:32;;;;;;;5.72;2.50;;;;;;;;;;5068434;28;20424;-81
2023/03/13 12:53:04;;;;;;;5.05;2.20;;;;;;;;;;5064802;28;20950;-80
2023/03/13 12:55:40;;;;;;;6.55;2.78;;;;;;;;;;5063226;28;20423;-81
2023/03/13 12:58:11;;;;;;;5.97;2.55;;;;;;;;;;5066123;28;20415;-81
2023/03/13 13:00:39;;;;;;;7.53;2.33;;;;;;;;;;5061796;28;20467;-81
2023/03/13 13:03:10;;;;;;;6.75;2.55;;;;;;;;;;5066897;28;20432;-81
2023/03/13 13:05:38;;;;;;;6.07;2.60;;;;;;;;;;5068550;28;20482;-81
2023/03/13 13:08:05;;;;;;;2.88;2.10;;;;;;;;;;5069366;28;20411;-81
2023/03/13 13:10:32;;;;;;;3.40;2.15;;;;;;;;;;5066115;28;20418;-81
2023/03/13 13:13:17;;;;;;;4.72;2.20;;;;;;;;;;5064630;28;20424;-80
2023/03/13 13:15:46;;;;;;;4.27;2.00;;;;;;;;;;5059865;28;20512;-80
2023/03/13 13:18:16;;;;;;;4.03;2.33;;;;;;;;;;5060394;28;20421;-81
2023/03/13 13:20:45;;;;;;;4.93;2.17;;;;;;;;;;5064142;28;20760;-82
2023/03/13 13:23:33;;;;;;;6.70;2.67;;;;;;;;;;5059739;28;20419;-82
2023/03/13 13:26:25;;;;;;;5.32;2.40;;;;;;;;;;5062584;28;20427;-81
2023/03/13 13:28:51;;;;;;;4.78;2.10;;;;;;;;;;5052561;28;20553;-80
2023/03/13 13:31:36;;;;;;;7.68;3.10;;;;;;;;;;5059564;28;20425;-82
2023/03/13 13:34:03;;;;;;;8.73;2.80;;;;;;;;;;5064113;28;20433;-80
2023/03/13 13:36:40;;;;;;;6.85;2.80;;;;;;;;;;5060269;28;20940;-83
2023/03/13 13:39:21;;;;;;;5.90;2.63;;;;;;;;;;5058311;28;20504;-81
2023/03/13 13:41:47;;;;;;;4.07;2.45;;;;;;;;;;5063695;28;20431;-81
2023/03/13 13:44:35;;;;;;;6.63;2.50;;;;;;;;;;5061953;28;20403;-82
2023/03/13 13:47:01;;;;;;;4.60;2.28;;;;;;;;;;5063988;28;20419;-82
2023/03/13 13:49:32;;;;;;;5.50;2.50;;;;;;;;;;5063387;28;20422;-82
2023/03/13 13:52:19;;;;;;;3.63;2.30;;;;;;;;;;5060685;28;20416;-82
2023/03/13 13:54:54;;;;;;;5.77;2.30;;;;;;;;;;5062589;28;20420;-82
2023/03/13 13:57:22;;;;;;;3.88;2.10;;;;;;;;;;5062337;28;20443;-82
2023/03/13 13:59:50;;;;;;;3.83;2.00;;;;;;;;;;5062137;28;20420;-81
2023/03/13 14:02:23;;;;;;;4.30;2.10;;;;;;;;;;5059454;28;20425;-82
2023/03/13 14:04:53;;;;;;;4.97;2.42;;;;;;;;;;5061470;28;20415;-82
2023/03/13 14:07:24;;;;;;;4.40;2.40;;;;;;;;;;5057145;28;20446;-82
2023/03/13 14:09:57;;;;;;;4.47;2.20;;;;;;;;;;5062274;28;20804;-81
2023/03/13 14:12:28;;;;;;;7.53;2.63;;;;;;;;;;5058329;28;20768;-81
2023/03/13 14:15:19;;;;;;;6.07;2.70;;;;;;;;;;5062269;28;20427;-81
2023/03/13 14:17:46;;;;;;;4.55;2.60;;;;;;;;;;5050787;28;20416;-81
2023/03/13 14:20:16;;;;;;;6.20;2.40;;;;;;;;;;5060859;28;20419;-82
2023/03/13 14:22:48;;;;;;;4.13;2.70;;;;;;;;;;5063202;28;20424;-82
2023/03/13 14:25:15;;;;;;;5.30;2.33;;;;;;;;;;5063723;28;20803;-82
2023/03/13 14:27:44;;;;;;;3.10;2.25;;;;;;;;;;5060305;28;20438;-82
2023/03/13 14:30:12;;;;;;;3.63;1.90;;;;;;;;;;5061077;28;20421;-81
2023/03/13 14:32:38;;;;;;;2.30;1.70;;;;;;;;;;5061988;28;20438;-82
2023/03/13 14:35:05;;;;;;;5.55;2.38;;;;;;;;;;5063213;28;20415;-82